KRKW/RKW METAR and TAF weather

Enter ICAO airport designator
Station Type Date Time Source
KRKW METAR 2020/09/23 19:55 UTC NOAA

KRKW 231955Z AUTO 00000KT 10SM CLR 19/12 A3008 RMK A01


Station Type Date Time Source
KRKW Decoded METAR 2020/09/23 19:55 UTC NOAA

Station name not available
Sep 23, 2020 - 03:55 PM EDT / 2020.09.23 1955 UTC
Wind: Calm:0
Visibility: 10 mile(s):0
Sky conditions: clear
Temperature: 66 F (19 C)
Dew Point: 53 F (12 C)
Relative Humidity: 63%
Pressure (altimeter): 30.08 in. Hg (1018 hPa)
ob: KRKW 231955Z AUTO 00000KT 10SM CLR 19/12 A3008 RMK A01
cycle: 20

Station Type Date Time Source
KRKW TAF 2009/08/31 19:50 UTC NOAA

METAR KRKW 311950Z AUTO VRB05KT 10SM CLR 25/13 A3010
RMK AO1 T02500133 $

Example: see airport list